Time;durP1;ratioP1;P1;durP2;ratioP2;P2;SDS_P1;SDS_P2;PMS_P1;PMS_P2;Temp;Humidity;BMP_temperature;BMP_pressure;BME280_temperature;BME280_humidity;BME280_pressure;Samples;Min_cycle;Max_cycle;Signal;HPM_P1;HPM_P2
2023/06/22 00:00:21;;;;;;;30.20;27.00;;;;;;;20.40;92.48;100712.23;104442;1280;97928;-82
2023/06/22 00:03:27;;;;;;;30.40;27.50;;;;;;;20.37;92.91;100708.65;104521;1282;100754;-82
2023/06/22 00:06:13;;;;;;;34.80;31.40;;;;;;;20.36;93.29;100711.20;104490;1279;102792;-81
2023/06/22 00:08:58;;;;;;;31.90;28.80;;;;;;;20.36;93.38;100709.99;104414;1279;118972;-81
2023/06/22 00:11:44;;;;;;;30.10;27.10;;;;;;;20.35;93.19;100707.27;104483;1282;97947;-81
2023/06/22 00:14:29;;;;;;;32.30;29.00;;;;;;;20.32;93.08;100700.56;104459;1279;98430;-81
2023/06/22 00:17:15;;;;;;;29.20;26.20;;;;;;;20.27;92.85;100699.23;104440;1283;97996;-82
2023/06/22 00:20:00;;;;;;;26.60;24.10;;;;;;;20.21;92.72;100693.52;104420;1284;101422;-81
2023/06/22 00:22:45;;;;;;;35.70;24.10;;;;;;;20.17;92.93;100691.86;104410;1283;100085;-81
2023/06/22 00:25:31;;;;;;;33.40;23.20;;;;;;;20.14;92.74;100693.49;104384;1285;97912;-82
2023/06/22 00:28:16;;;;;;;23.10;21.10;;;;;;;20.10;92.55;100695.15;104492;1280;96388;-82
2023/06/22 00:31:02;;;;;;;23.70;21.50;;;;;;;20.04;92.44;100694.52;104423;1279;99350;-81
2023/06/22 00:33:47;;;;;;;22.40;20.40;;;;;;;19.98;92.12;100690.67;104229;1282;101335;-81
2023/06/22 00:36:33;;;;;;;25.80;23.10;;;;;;;19.93;92.30;100684.88;104448;1283;99118;-81
2023/06/22 00:39:18;;;;;;;24.20;21.90;;;;;;;19.90;92.63;100683.61;104350;1280;99052;-81
2023/06/22 00:42:04;;;;;;;22.80;20.50;;;;;;;19.86;92.52;100679.10;104435;1282;98097;-82
2023/06/22 00:44:50;;;;;;;24.20;21.70;;;;;;;19.83;92.69;100671.37;104287;1283;97900;-82
2023/06/22 00:47:37;;;;;;;28.70;25.50;;;;;;;19.80;92.67;100668.21;104199;1282;101368;-81
2023/06/22 00:50:26;;;;;;;24.90;22.30;;;;;;;19.78;92.96;100660.36;104434;1280;99112;-81
2023/06/22 00:53:13;;;;;;;34.20;30.00;;;;;;;19.78;93.04;100661.83;104490;1287;99490;-82
2023/06/22 00:55:59;;;;;;;37.50;33.20;;;;;;;19.79;93.64;100663.27;104426;1279;98001;-81
2023/06/22 00:58:47;;;;;;;34.60;30.50;;;;;;;19.82;94.05;100660.97;104494;1280;98520;-81
2023/06/22 01:01:34;;;;;;;36.80;32.90;;;;;;;19.83;94.10;100658.55;104372;1280;102071;-81
2023/06/22 01:04:19;;;;;;;34.90;31.20;;;;;;;19.84;94.46;100653.52;104856;1277;100016;-81
2023/06/22 01:07:31;;;;;;;36.40;32.60;;;;;;;19.86;94.46;100647.95;104407;1283;98127;-82
2023/06/22 01:10:45;;;;;;;33.00;29.70;;;;;;;19.88;94.76;100646.55;104321;1284;97995;-81
2023/06/22 01:14:03;;;;;;;32.80;29.50;;;;;;;19.89;94.84;100650.27;104370;1280;98462;-82
2023/06/22 01:16:50;;;;;;;35.70;31.90;;;;;;;19.88;94.81;100662.48;104500;1279;101571;-81
2023/06/22 01:19:46;;;;;;;54.00;35.50;;;;;;;19.89;95.82;100666.58;104603;1280;99149;-81
2023/06/22 01:23:04;;;;;;;43.10;36.30;;;;;;;19.88;97.08;100664.30;104412;1279;99455;-81
2023/06/22 01:26:05;;;;;;;42.90;33.50;;;;;;;19.87;97.85;100666.50;104295;1285;98007;-82
2023/06/22 01:28:54;;;;;;;38.10;34.30;;;;;;;19.87;98.42;100667.80;104395;1285;98523;-82
2023/06/22 01:31:42;;;;;;;39.20;35.20;;;;;;;19.86;98.92;100673.33;104373;1277;101999;-82
2023/06/22 01:34:30;;;;;;;42.70;38.10;;;;;;;19.84;99.49;100679.33;104365;1280;99127;-81
2023/06/22 01:37:16;;;;;;;42.90;38.70;;;;;;;19.81;99.94;100686.79;104284;1285;98326;-81
2023/06/22 01:40:05;;;;;;;42.30;37.70;;;;;;;19.80;100.00;100689.38;104435;1282;98077;-82
2023/06/22 01:42:51;;;;;;;42.30;37.90;;;;;;;19.80;100.00;100689.96;104309;1280;98561;-82
2023/06/22 01:45:37;;;;;;;42.10;37.70;;;;;;;19.80;100.00;100696.33;104508;1280;102467;-82
2023/06/22 01:48:23;;;;;;;43.90;39.50;;;;;;;19.82;100.00;100699.67;104370;1281;99182;-81
2023/06/22 01:51:09;;;;;;;45.30;40.70;;;;;;;19.82;100.00;100700.65;104132;1283;98965;-82
2023/06/22 01:53:55;;;;;;;44.60;39.90;;;;;;;19.81;100.00;100704.98;104470;1279;98104;-82
2023/06/22 01:56:40;;;;;;;44.90;40.20;;;;;;;19.80;100.00;100704.39;104416;1279;99757;-81
2023/06/22 01:59:30;;;;;;;45.60;37.60;;;;;;;19.80;100.00;100703.39;104393;1283;101394;-82
2023/06/22 02:02:20;;;;;;;43.30;39.00;;;;;;;19.79;100.00;100706.42;104735;1279;99106;-82
2023/06/22 02:05:10;;;;;;;43.00;38.60;;;;;;;19.77;100.00;100707.86;104473;1281;98101;-82
2023/06/22 02:08:09;;;;;;;44.60;39.70;;;;;;;19.75;100.00;100710.94;104260;1280;98016;-81
2023/06/22 02:10:57;;;;;;;42.50;38.10;;;;;;;19.76;100.00;100715.73;104213;1280;98125;-81
2023/06/22 02:13:44;;;;;;;45.00;40.20;;;;;;;19.75;100.00;100727.22;104483;1280;102639;-83
2023/06/22 02:16:32;;;;;;;42.30;38.00;;;;;;;19.72;100.00;100732.33;104435;1280;100786;-82
2023/06/22 02:19:23;;;;;;;42.40;38.20;;;;;;;19.73;100.00;100732.40;104484;1278;98947;-82
2023/06/22 02:22:09;;;;;;;43.00;38.50;;;;;;;19.74;100.00;100733.72;104504;1282;97911;-82
2023/06/22 02:24:56;;;;;;;42.60;38.10;;;;;;;19.72;100.00;100742.23;104345;1280;97899;-82
2023/06/22 02:27:41;;;;;;;42.40;37.30;;;;;;;19.72;100.00;100742.92;104425;1279;101472;-82
2023/06/22 02:30:27;;;;;;;40.70;36.30;;;;;;;19.71;100.00;100743.40;104362;1280;100093;-82
2023/06/22 02:33:12;;;;;;;40.50;36.10;;;;;;;19.69;100.00;100748.48;104390;1280;97950;-81
2023/06/22 02:35:57;;;;;;;42.20;37.50;;;;;;;19.67;100.00;100759.48;104304;1282;97994;-82
2023/06/22 02:38:47;;;;;;;38.60;34.70;;;;;;;19.65;100.00;100762.97;104423;1280;97968;-83
2023/06/22 02:41:35;;;;;;;40.10;35.50;;;;;;;19.64;100.00;100761.85;104414;1280;102175;-82
2023/06/22 02:44:20;;;;;;;36.70;33.00;;;;;;;19.65;100.00;100762.89;104055;1283;100387;-82
2023/06/22 02:47:07;;;;;;;40.80;35.60;;;;;;;19.66;100.00;100762.92;104267;1279;98507;-83
2023/06/22 02:49:53;;;;;;;40.70;33.10;;;;;;;19.67;100.00;100763.33;104398;1279;97991;-81
2023/06/22 02:52:39;;;;;;;38.90;34.20;;;;;;;19.66;100.00;100761.61;104371;1283;98049;-81
2023/06/22 02:55:25;;;;;;;37.90;33.00;;;;;;;19.66;100.00;100768.47;104205;1283;102041;-82
2023/06/22 02:58:15;;;;;;;36.50;32.70;;;;;;;19.68;100.00;100771.95;104353;1282;99132;-82
2023/06/22 03:01:04;;;;;;;36.70;31.40;;;;;;;19.71;100.00;100777.27;104494;1280;97902;-82
2023/06/22 03:03:50;;;;;;;35.90;32.00;;;;;;;19.73;100.00;100775.84;104128;1278;98017;-81
2023/06/22 03:06:36;;;;;;;33.60;29.80;;;;;;;19.75;100.00;100772.40;104429;1277;100397;-84
2023/06/22 03:09:22;;;;;;;30.90;27.60;;;;;;;19.78;100.00;100774.33;104286;1285;101365;-82
2023/06/22 03:12:08;;;;;;;34.40;30.50;;;;;;;19.80;100.00;100775.00;104403;1279;99295;-82
2023/06/22 03:15:01;;;;;;;33.70;29.60;;;;;;;19.81;100.00;100779.98;104187;1280;98638;-83
2023/06/22 03:17:46;;;;;;;33.60;30.10;;;;;;;19.82;100.00;100781.13;104173;1282;98303;-83
2023/06/22 03:20:33;;;;;;;32.30;28.50;;;;;;;19.83;100.00;100782.65;104118;1278;98466;-82
2023/06/22 03:23:18;;;;;;;34.00;30.20;;;;;;;19.81;100.00;100787.91;104319;1280;103237;-83
2023/06/22 03:26:04;;;;;;;33.60;29.80;;;;;;;19.81;100.00;100782.63;104409;1282;99803;-83
2023/06/22 03:28:50;;;;;;;32.80;28.00;;;;;;;19.80;100.00;100785.49;104229;1279;98805;-83
2023/06/22 03:31:35;;;;;;;33.90;28.10;;;;;;;19.80;100.00;100793.70;104351;1283;98942;-83
2023/06/22 03:34:20;;;;;;;32.30;27.00;;;;;;;19.83;100.00;100797.37;104188;1282;97995;-84
2023/06/22 03:37:06;;;;;;;35.80;28.90;;;;;;;19.87;100.00;100799.28;104423;1279;101378;-83
2023/06/22 03:39:52;;;;;;;31.60;27.80;;;;;;;19.89;100.00;100806.94;104085;1281;100590;-84
2023/06/22 03:42:38;;;;;;;32.10;28.60;;;;;;;19.91;100.00;100810.79;104170;1279;99080;-82
2023/06/22 03:45:23;;;;;;;30.30;26.80;;;;;;;19.95;100.00;100816.85;104315;1285;97942;-82
2023/06/22 03:48:09;;;;;;;31.00;26.70;;;;;;;19.97;100.00;100819.21;104426;1285;98277;-82
2023/06/22 03:50:55;;;;;;;30.00;26.70;;;;;;;19.99;100.00;100821.14;104117;1280;101903;-83
2023/06/22 03:53:41;;;;;;;30.90;26.90;;;;;;;20.04;100.00;100828.09;104245;1277;99270;-83
2023/06/22 03:56:26;;;;;;;31.90;25.90;;;;;;;20.08;100.00;100831.70;104420;1280;98007;-82
2023/06/22 03:59:12;;;;;;;32.20;25.80;;;;;;;20.10;100.00;100833.16;104354;1277;97695;-82
2023/06/22 04:01:57;;;;;;;35.00;24.10;;;;;;;20.13;100.00;100833.98;104213;1281;98010;-83
2023/06/22 04:04:42;;;;;;;28.30;24.10;;;;;;;20.13;100.00;100837.02;104342;1280;102722;-83
2023/06/22 04:07:27;;;;;;;27.90;24.30;;;;;;;20.12;100.00;100836.69;104357;1278;99133;-83
2023/06/22 04:10:13;;;;;;;26.40;23.50;;;;;;;20.16;100.00;100842.46;104098;1280;98546;-83
2023/06/22 04:13:00;;;;;;;28.70;23.60;;;;;;;20.20;100.00;100844.48;104137;1279;98004;-83
2023/06/22 04:15:45;;;;;;;26.90;22.20;;;;;;;20.24;100.00;100845.20;104522;1280;99367;-83
2023/06/22 04:18:30;;;;;;;26.50;23.70;;;;;;;20.30;100.00;100841.83;104303;1282;101374;-83
2023/06/22 04:21:16;;;;;;;26.90;23.10;;;;;;;20.34;100.00;100843.06;104276;1280;100414;-82
2023/06/22 04:24:01;;;;;;;27.40;24.20;;;;;;;20.37;100.00;100843.77;104425;1277;98008;-83
2023/06/22 04:26:47;;;;;;;25.30;22.70;;;;;;;20.41;100.00;100848.23;104117;1277;97813;-82
2023/06/22 04:29:33;;;;;;;28.40;22.40;;;;;;;20.44;100.00;100844.88;104432;1279;99688;-83
2023/06/22 04:32:19;;;;;;;33.00;22.70;;;;;;;20.48;100.00;100842.77;104133;1277;101436;-85
2023/06/22 04:35:06;;;;;;;24.60;21.90;;;;;;;20.51;100.00;100843.64;104082;1280;100558;-84
2023/06/22 04:37:54;;;;;;;27.80;22.20;;;;;;;20.55;100.00;100842.23;104466;1278;98481;-84
2023/06/22 04:40:40;;;;;;;28.50;21.80;;;;;;;20.57;100.00;100839.83;104280;1280;97972;-84
2023/06/22 04:43:25;;;;;;;23.60;20.70;;;;;;;20.63;100.00;100836.81;104208;1282;98084;-84
2023/06/22 04:46:10;;;;;;;31.00;21.00;;;;;;;20.64;100.00;100834.81;104364;1280;103002;-84
2023/06/22 04:48:56;;;;;;;26.80;21.40;;;;;;;20.65;100.00;100835.21;104405;1283;100396;-84
2023/06/22 04:51:42;;;;;;;24.70;17.70;;;;;;;20.68;100.00;100833.41;104240;1279;99235;-85
2023/06/22 04:54:27;;;;;;;21.30;19.00;;;;;;;20.68;100.00;100838.04;104263;1277;97902;-84
2023/06/22 04:57:13;;;;;;;23.60;20.90;;;;;;;20.70;100.00;100850.20;104269;1284;97998;-84
2023/06/22 05:00:14;;;;;;;25.20;20.00;;;;;;;20.75;100.00;100852.48;104197;1280;102180;-84
2023/06/22 05:03:00;;;;;;;26.80;19.80;;;;;;;20.80;100.00;100850.59;104331;1280;99127;-84
2023/06/22 05:05:46;;;;;;;26.00;20.50;;;;;;;20.85;100.00;100851.77;104290;1280;98023;-83
2023/06/22 05:08:32;;;;;;;25.60;19.70;;;;;;;20.87;100.00;100846.63;104095;1285;97886;-84
2023/06/22 05:11:18;;;;;;;21.40;19.10;;;;;;;20.93;100.00;100851.17;104126;1283;98541;-84
2023/06/22 05:14:03;;;;;;;25.60;19.00;;;;;;;20.97;100.00;100858.50;104391;1283;101643;-84
2023/06/22 05:16:50;;;;;;;24.80;18.70;;;;;;;21.00;100.00;100857.61;104279;1283;99251;-84
2023/06/22 05:19:36;;;;;;;24.50;19.10;;;;;;;21.04;100.00;100859.63;104410;1278;99295;-83
2023/06/22 05:22:21;;;;;;;23.00;19.20;;;;;;;21.11;100.00;100866.98;104204;1279;98454;-83
2023/06/22 05:25:09;;;;;;;20.00;17.90;;;;;;;21.16;100.00;100867.44;104564;1283;98040;-84
2023/06/22 05:27:54;;;;;;;21.70;17.90;;;;;;;21.19;100.00;100864.81;104357;1280;101398;-84
2023/06/22 05:30:41;;;;;;;22.20;17.40;;;;;;;21.20;100.00;100862.54;104207;1279;99132;-82
2023/06/22 05:33:27;;;;;;;16.20;14.60;;;;;;;21.26;100.00;100859.46;104462;1277;98715;-83
2023/06/22 05:36:13;;;;;;;22.00;16.70;;;;;;;21.31;100.00;100862.86;104317;1280;97925;-84
2023/06/22 05:38:58;;;;;;;20.50;16.20;;;;;;;21.38;100.00;100863.71;104280;1277;98542;-84
2023/06/22 05:41:45;;;;;;;18.50;16.40;;;;;;;21.43;100.00;100865.27;104249;1279;102128;-84
2023/06/22 05:44:31;;;;;;;18.10;16.10;;;;;;;21.51;100.00;100870.44;104276;1277;100401;-83
2023/06/22 05:47:16;;;;;;;19.20;16.10;;;;;;;21.60;100.00;100873.02;104075;1283;98014;-83
2023/06/22 05:50:06;;;;;;;19.30;15.50;;;;;;;21.69;100.00;100875.48;104254;1277;98084;-83
2023/06/22 05:52:52;;;;;;;19.10;15.60;;;;;;;21.77;100.00;100879.90;104414;1277;97986;-83
2023/06/22 05:55:37;;;;;;;18.00;14.10;;;;;;;21.82;100.00;100889.09;104451;1279;102294;-82
2023/06/22 05:58:23;;;;;;;22.00;15.00;;;;;;;21.88;100.00;100891.80;104335;1277;100410;-83
2023/06/22 06:01:08;;;;;;;20.80;15.30;;;;;;;21.94;100.00;100893.69;104332;1279;97953;-82
2023/06/22 06:03:54;;;;;;;15.80;12.80;;;;;;;21.99;100.00;100888.13;104314;1283;98173;-82
2023/06/22 06:06:40;;;;;;;16.70;13.30;;;;;;;22.04;100.00;100890.96;104262;1282;98014;-83
2023/06/22 06:09:25;;;;;;;19.70;14.20;;;;;;;22.13;100.00;100893.48;104365;1280;101405;-83
2023/06/22 06:12:10;;;;;;;15.20;13.00;;;;;;;22.21;100.00;100892.42;104259;1277;99104;-82
2023/06/22 06:14:56;;;;;;;16.90;11.10;;;;;;;22.27;100.00;100889.61;104347;1284;98046;-83
2023/06/22 06:17:46;;;;;;;17.30;11.50;;;;;;;22.35;99.93;100889.03;104188;1280;98965;-82
2023/06/22 06:20:32;;;;;;;14.50;12.00;;;;;;;22.45;99.51;100890.33;104240;1282;98545;-82
2023/06/22 06:23:17;;;;;;;14.30;11.70;;;;;;;22.50;98.19;100887.10;104020;1280;101741;-83
2023/06/22 06:26:06;;;;;;;12.80;10.80;;;;;;;22.55;97.96;100884.31;104218;1282;99239;-82
2023/06/22 06:28:57;;;;;;;11.70;10.20;;;;;;;22.62;97.80;100880.37;104371;1282;98100;-83
2023/06/22 06:31:42;;;;;;;15.00;9.60;;;;;;;22.71;97.97;100879.05;104377;1277;97987;-82
2023/06/22 06:34:28;;;;;;;12.80;10.50;;;;;;;22.82;97.56;100884.54;104209;1280;99812;-83
2023/06/22 06:37:13;;;;;;;12.30;9.30;;;;;;;22.88;96.27;100885.03;104413;1282;102393;-84
2023/06/22 06:39:59;;;;;;;12.80;8.80;;;;;;;22.92;94.92;100888.34;104146;1277;100514;-84
2023/06/22 06:42:47;;;;;;;12.50;8.50;;;;;;;22.96;94.80;100891.43;104205;1280;99014;-83
2023/06/22 06:45:34;;;;;;;10.40;7.80;;;;;;;23.04;93.74;100892.20;104138;1280;97975;-83
2023/06/22 06:48:19;;;;;;;15.00;8.70;;;;;;;23.08;93.09;100891.96;104146;1277;98924;-84
2023/06/22 06:51:08;;;;;;;11.20;8.80;;;;;;;23.15;93.25;100893.38;104177;1286;111213;-84
2023/06/22 06:53:54;;;;;;;12.20;8.70;;;;;;;23.21;92.64;100895.50;104319;1282;100084;-83
2023/06/22 06:56:39;;;;;;;12.80;8.70;;;;;;;23.26;92.28;100896.36;104298;1285;98417;-83
2023/06/22 06:59:25;;;;;;;11.30;8.20;;;;;;;23.33;92.18;100898.41;104248;1280;98148;-83
2023/06/22 07:02:11;;;;;;;11.60;8.20;;;;;;;23.37;91.20;100896.80;104356;1277;98642;-83
2023/06/22 07:04:57;;;;;;;11.80;7.60;;;;;;;23.43;90.61;100897.54;104200;1283;101379;-83
2023/06/22 07:07:42;;;;;;;10.30;7.00;;;;;;;23.52;90.53;100896.56;104351;1280;99292;-83
2023/06/22 07:10:28;;;;;;;12.30;7.00;;;;;;;23.59;89.80;100901.96;104204;1284;98075;-83
2023/06/22 07:13:13;;;;;;;9.20;7.40;;;;;;;23.65;89.37;100908.17;104291;1284;98091;-82
2023/06/22 07:16:01;;;;;;;7.10;6.40;;;;;;;23.69;88.44;100912.02;104260;1277;98036;-83
2023/06/22 07:18:46;;;;;;;12.40;5.90;;;;;;;23.73;87.94;100910.35;104397;1281;101384;-84
2023/06/22 07:21:32;;;;;;;9.40;5.60;;;;;;;23.80;86.68;100911.05;104314;1280;99253;-84
2023/06/22 07:24:18;;;;;;;9.60;5.20;;;;;;;23.85;86.45;100910.30;104252;1277;99588;-83
2023/06/22 07:27:06;;;;;;;7.80;5.20;;;;;;;23.90;86.19;100909.77;104193;1277;98022;-84
2023/06/22 07:29:52;;;;;;;6.20;5.30;;;;;;;23.97;85.14;100917.80;103953;1279;97962;-83
2023/06/22 07:32:38;;;;;;;8.10;5.30;;;;;;;24.04;84.79;100920.31;104108;1278;102194;-84
2023/06/22 07:35:25;;;;;;;6.40;4.40;;;;;;;24.13;83.27;100919.09;104314;1279;107845;-82
2023/06/22 07:38:10;;;;;;;5.90;4.50;;;;;;;24.14;82.16;100917.63;104189;1285;99044;-82
2023/06/22 07:40:55;;;;;;;12.40;5.60;;;;;;;24.19;82.15;100920.11;104313;1282;98031;-82
2023/06/22 07:43:41;;;;;;;6.20;4.20;;;;;;;24.23;81.02;100924.84;104167;1280;100066;-82
2023/06/22 07:46:26;;;;;;;6.00;3.20;;;;;;;24.24;79.89;100924.73;104276;1279;101386;-85
2023/06/22 07:49:12;;;;;;;5.90;3.10;;;;;;;24.29;77.90;100918.83;104247;1281;99290;-83
2023/06/22 07:51:57;;;;;;;3.70;3.40;;;;;;;24.32;77.33;100915.50;104179;1277;99078;-83
2023/06/22 07:54:43;;;;;;;3.60;3.30;;;;;;;24.34;76.31;100913.43;104207;1277;98052;-83
2023/06/22 07:57:33;;;;;;;5.20;3.00;;;;;;;24.38;75.41;100913.88;104015;1283;98618;-83
2023/06/22 08:00:20;;;;;;;3.20;2.50;;;;;;;24.43;74.72;100910.16;104012;1280;103132;-84
2023/06/22 08:03:05;;;;;;;4.10;2.60;;;;;;;24.47;72.74;100905.74;104300;1279;99259;-83
2023/06/22 08:05:51;;;;;;;7.00;3.20;;;;;;;24.49;72.50;100908.70;104529;1279;97940;-83
2023/06/22 08:08:37;;;;;;;6.10;2.80;;;;;;;24.56;72.79;100911.11;104229;1281;97956;-83
2023/06/22 08:11:25;;;;;;;3.50;3.20;;;;;;;24.64;72.76;100907.52;104134;1280;97979;-83
2023/06/22 08:14:10;;;;;;;3.50;2.90;;;;;;;24.71;71.91;100906.05;104541;1280;102948;-82
2023/06/22 08:16:55;;;;;;;5.60;3.50;;;;;;;24.77;72.79;100909.26;104274;1280;100438;-83
2023/06/22 08:19:42;;;;;;;7.20;3.80;;;;;;;24.83;72.70;100910.27;104300;1278;98974;-83
2023/06/22 08:22:27;;;;;;;6.90;3.60;;;;;;;24.83;71.95;100917.88;104508;1280;96166;-83
2023/06/22 08:25:13;;;;;;;4.80;3.10;;;;;;;24.85;72.26;100921.98;104323;1279;97939;-83
2023/06/22 08:27:59;;;;;;;8.10;3.80;;;;;;;24.90;72.11;100923.46;104304;1279;101524;-84
2023/06/22 08:30:45;;;;;;;5.80;4.10;;;;;;;24.92;70.84;100928.95;104184;1283;100480;-84
2023/06/22 08:33:30;;;;;;;5.80;3.70;;;;;;;24.94;71.50;100925.05;104193;1280;98426;-83
2023/06/22 08:36:16;;;;;;;4.50;4.10;;;;;;;24.97;71.35;100925.48;104080;1278;98068;-85
2023/06/22 08:39:02;;;;;;;6.20;4.00;;;;;;;24.99;70.69;100929.83;104152;1278;97939;-83
2023/06/22 08:41:50;;;;;;;6.20;4.20;;;;;;;25.01;71.28;100932.61;104310;1282;102666;-83
2023/06/22 08:44:36;;;;;;;4.80;4.00;;;;;;;25.06;71.05;100940.63;104150;1280;99434;-84
2023/06/22 08:47:22;;;;;;;7.70;4.70;;;;;;;25.08;70.85;100935.21;104224;1280;98015;-84
2023/06/22 08:50:09;;;;;;;4.60;3.80;;;;;;;25.09;70.58;100928.89;104073;1278;98565;-83
2023/06/22 08:52:55;;;;;;;5.90;4.30;;;;;;;25.13;70.60;100926.70;104151;1278;99608;-83
2023/06/22 08:55:40;;;;;;;5.00;3.30;;;;;;;25.19;70.52;100922.31;104170;1283;101478;-83
2023/06/22 08:58:25;;;;;;;7.30;3.90;;;;;;;25.23;70.12;100924.73;104427;1281;99108;-83
2023/06/22 09:01:11;;;;;;;6.30;3.90;;;;;;;25.23;70.37;100915.34;104268;1280;98104;-83
2023/06/22 09:03:58;;;;;;;8.90;4.10;;;;;;;25.26;69.98;100914.90;104152;1280;98069;-82
2023/06/22 09:06:45;;;;;;;4.70;4.30;;;;;;;25.24;69.53;100916.66;104332;1283;98001;-82
2023/06/22 09:09:30;;;;;;;6.60;4.40;;;;;;;25.23;70.00;100918.31;104335;1277;109510;-83
2023/06/22 09:12:16;;;;;;;7.40;4.70;;;;;;;25.26;70.33;100919.45;104388;1282;99124;-82
2023/06/22 09:15:02;;;;;;;6.30;4.00;;;;;;;25.28;69.95;100924.11;105259;1280;98825;-83
2023/06/22 09:17:47;;;;;;;4.60;4.10;;;;;;;25.31;69.78;100924.27;104303;1277;98009;-83
2023/06/22 09:20:33;;;;;;;8.40;4.50;;;;;;;25.36;70.02;100931.40;104551;1277;97921;-83
2023/06/22 09:23:19;;;;;;;8.40;4.80;;;;;;;25.42;69.98;100931.53;104360;1283;102237;-85
2023/06/22 09:26:05;;;;;;;10.00;4.50;;;;;;;25.46;69.92;100927.91;104353;1283;100373;-83
2023/06/22 09:28:51;;;;;;;5.40;4.40;;;;;;;25.46;69.55;100923.80;104364;1283;97951;-83
2023/06/22 09:31:36;;;;;;;5.30;4.80;;;;;;;25.53;69.95;100924.77;103989;1285;97947;-84
2023/06/22 09:34:22;;;;;;;9.10;4.40;;;;;;;25.59;69.88;100926.56;104100;1280;98497;-83
2023/06/22 09:37:08;;;;;;;6.90;4.50;;;;;;;25.63;69.27;100925.95;104386;1277;101491;-83
2023/06/22 09:39:53;;;;;;;6.40;4.10;;;;;;;25.65;67.94;100924.96;104313;1281;99103;-83
2023/06/22 09:42:39;;;;;;;8.40;4.50;;;;;;;25.66;67.50;100922.98;104323;1284;98458;-84
2023/06/22 09:45:24;;;;;;;6.90;4.50;;;;;;;25.71;67.46;100922.30;104197;1280;97973;-84
2023/06/22 09:48:10;;;;;;;7.10;4.50;;;;;;;25.76;67.29;100926.09;104256;1280;98424;-84
2023/06/22 09:50:55;;;;;;;7.20;4.80;;;;;;;25.82;67.82;100924.36;104290;1282;101958;-82
2023/06/22 09:53:40;;;;;;;4.80;4.30;;;;;;;25.88;68.16;100923.58;104438;1282;100367;-83
2023/06/22 09:56:28;;;;;;;7.90;4.30;;;;;;;25.90;66.94;100925.77;104489;1280;97930;-83
2023/06/22 09:59:13;;;;;;;9.20;4.30;;;;;;;25.88;66.45;100926.33;104341;1277;98027;-83
2023/06/22 10:01:58;;;;;;;11.90;4.50;;;;;;;25.90;66.65;100922.52;104280;1283;98007;-83
2023/06/22 10:04:44;;;;;;;6.10;4.20;;;;;;;25.92;66.75;100919.66;104444;1277;102770;-83
2023/06/22 10:07:30;;;;;;;8.20;4.30;;;;;;;25.99;67.64;100915.78;104339;1282;100166;-83
2023/06/22 10:10:15;;;;;;;5.80;3.80;;;;;;;26.10;67.30;100916.55;104217;1283;98151;-83
2023/06/22 10:13:10;;;;;;;8.50;4.10;;;;;;;26.16;65.50;100915.88;104401;1282;98024;-83
2023/06/22 10:15:56;;;;;;;6.60;4.30;;;;;;;26.17;64.51;100914.77;104214;1282;99651;-83
2023/06/22 10:18:42;;;;;;;4.80;4.30;;;;;;;26.20;64.09;100911.61;104329;1277;101387;-83
2023/06/22 10:21:29;;;;;;;4.90;4.10;;;;;;;26.24;64.26;100906.71;104378;1280;99179;-82
2023/06/22 10:24:14;;;;;;;8.60;3.80;;;;;;;26.30;64.36;100903.26;104333;1279;98001;-83
2023/06/22 10:27:00;;;;;;;8.80;4.60;;;;;;;26.36;63.17;100909.98;104210;1277;97926;-82
2023/06/22 10:29:45;;;;;;;5.90;3.40;;;;;;;26.39;63.38;100906.66;104437;1279;97982;-83
2023/06/22 10:32:30;;;;;;;4.10;3.70;;;;;;;26.44;62.56;100907.14;104290;1277;101429;-83
2023/06/22 10:35:16;;;;;;;6.50;3.30;;;;;;;26.44;62.44;100909.16;104544;1280;99929;-83
2023/06/22 10:38:01;;;;;;;5.30;3.20;;;;;;;26.50;61.99;100909.63;104312;1280;98046;-83
2023/06/22 10:40:46;;;;;;;9.00;3.70;;;;;;;26.59;61.53;100912.80;104282;1285;98002;-82
2023/06/22 10:43:32;;;;;;;3.70;3.30;;;;;;;26.65;60.46;100913.98;104365;1277;99118;-82
2023/06/22 10:46:18;;;;;;;3.90;3.50;;;;;;;26.69;60.08;100907.41;104260;1283;101445;-82
2023/06/22 10:49:03;;;;;;;6.50;3.40;;;;;;;26.77;60.74;100906.89;104471;1277;100072;-83
2023/06/22 10:51:49;;;;;;;7.70;4.00;;;;;;;26.85;61.44;100909.70;104303;1286;98593;-83
2023/06/22 10:54:36;;;;;;;5.10;3.90;;;;;;;26.92;60.02;100907.05;104275;1278;97953;-82
2023/06/22 10:57:22;;;;;;;5.60;3.30;;;;;;;26.96;59.37;100900.69;104403;1279;99008;-83
2023/06/22 11:00:08;;;;;;;7.90;4.20;;;;;;;26.95;58.49;100894.42;104450;1280;102672;-84
2023/06/22 11:02:54;;;;;;;4.70;3.60;;;;;;;26.85;58.11;100894.56;104328;1277;99158;-82
2023/06/22 11:05:40;;;;;;;10.80;3.90;;;;;;;26.87;58.51;100898.11;104504;1282;98498;-82
2023/06/22 11:08:25;;;;;;;5.00;3.50;;;;;;;26.90;58.25;100893.38;104447;1280;97991;-82
2023/06/22 11:11:11;;;;;;;4.10;3.70;;;;;;;26.94;58.43;100888.30;104476;1282;97845;-82
2023/06/22 11:13:56;;;;;;;4.60;3.60;;;;;;;26.99;57.97;100890.56;104360;1282;101433;-83
2023/06/22 11:16:42;;;;;;;4.90;3.30;;;;;;;27.01;57.88;100887.95;104428;1280;99906;-83
2023/06/22 11:19:27;;;;;;;6.20;4.70;;;;;;;27.07;57.80;100886.91;104339;1280;98760;-82
2023/06/22 11:22:13;;;;;;;6.70;3.40;;;;;;;27.15;57.74;100889.14;104124;1281;97952;-83
2023/06/22 11:24:59;;;;;;;3.40;3.00;;;;;;;27.19;57.00;100891.95;104545;1280;98048;-83
2023/06/22 11:27:44;;;;;;;5.60;3.30;;;;;;;27.22;56.99;100891.66;104406;1280;102458;-82
2023/06/22 11:30:30;;;;;;;6.60;3.60;;;;;;;27.23;56.34;100894.89;104317;1280;100798;-83
2023/06/22 11:33:16;;;;;;;4.70;3.10;;;;;;;27.24;56.49;100895.82;104449;1280;97939;-83
2023/06/22 11:36:03;;;;;;;4.10;3.50;;;;;;;27.26;56.49;100896.84;104465;1282;98081;-82
2023/06/22 11:38:48;;;;;;;3.90;3.30;;;;;;;27.30;56.55;100893.55;104214;1283;98485;-83
2023/06/22 11:41:34;;;;;;;3.90;3.50;;;;;;;27.32;57.05;100891.95;104427;1280;101391;-82
2023/06/22 11:44:19;;;;;;;10.20;4.00;;;;;;;27.40;56.46;100892.56;104471;1280;99499;-83
2023/06/22 11:47:05;;;;;;;3.90;3.20;;;;;;;27.42;55.88;100895.72;104247;1280;98520;-84
2023/06/22 11:49:51;;;;;;;6.50;3.70;;;;;;;27.50;56.88;100891.63;104287;1283;98061;-83
2023/06/22 11:52:36;;;;;;;6.90;3.40;;;;;;;27.53;55.82;100884.01;104372;1280;97984;-83
2023/06/22 11:55:22;;;;;;;4.30;3.50;;;;;;;27.48;54.80;100878.16;104238;1280;101405;-82
2023/06/22 11:58:08;;;;;;;3.50;3.00;;;;;;;27.49;54.58;100879.65;104136;1283;99134;-83
2023/06/22 12:00:54;;;;;;;4.40;3.30;;;;;;;27.46;54.13;100879.13;104295;1279;99037;-83
2023/06/22 12:03:39;;;;;;;5.00;3.40;;;;;;;27.42;53.98;100866.78;104482;1282;98075;-83
2023/06/22 12:06:25;;;;;;;5.40;3.40;;;;;;;27.43;54.11;100868.25;104474;1279;99702;-83
2023/06/22 12:09:10;;;;;;;4.80;3.90;;;;;;;27.47;54.45;100864.73;104451;1282;143257;-83
2023/06/22 12:11:56;;;;;;;5.10;3.50;;;;;;;27.51;53.85;100864.31;104572;1280;100483;-83
2023/06/22 12:14:41;;;;;;;4.50;3.90;;;;;;;27.49;53.74;100862.58;104558;1283;98924;-82
2023/06/22 12:17:26;;;;;;;4.90;3.70;;;;;;;27.53;54.17;100860.39;104419;1284;97915;-83
2023/06/22 12:20:12;;;;;;;5.10;3.50;;;;;;;27.62;54.44;100859.73;104477;1279;98465;-83
2023/06/22 12:22:58;;;;;;;6.90;3.70;;;;;;;27.69;53.15;100861.20;104637;1280;102611;-83
2023/06/22 12:25:44;;;;;;;5.40;3.90;;;;;;;27.71;53.45;100855.55;104554;1285;100638;-82
2023/06/22 12:28:30;;;;;;;4.50;3.80;;;;;;;27.77;53.44;100858.67;104578;1282;97989;-82
2023/06/22 12:31:15;;;;;;;4.60;3.60;;;;;;;27.80;52.93;100861.60;104549;1283;97937;-82